Time;durP1;ratioP1;P1;durP2;ratioP2;P2;SDS_P1;SDS_P2;PMS_P1;PMS_P2;Temp;Humidity;BMP_temperature;BMP_pressure;BME280_temperature;BME280_humidity;BME280_pressure;Samples;Min_cycle;Max_cycle;Signal;HPM_P1;HPM_P2
2022/09/16 00:01:24;;;;;;;6.90;2.45;;;;;;;22.43;60.56;93977.63;5033307;28;20632;-65
2022/09/16 00:03:54;;;;;;;9.32;2.53;;;;;;;22.81;59.81;93971.34;5033173;28;20221;-61
2022/09/16 00:06:25;;;;;;;7.00;2.42;;;;;;;22.64;60.73;93953.06;5033154;28;20248;-63
2022/09/16 00:08:54;;;;;;;5.47;2.30;;;;;;;22.32;60.80;93964.63;5033098;28;20283;-62
2022/09/16 00:11:19;;;;;;;14.18;2.85;;;;;;;22.36;61.22;93955.41;5032938;28;20182;-64
2022/09/16 00:13:45;;;;;;;9.48;2.42;;;;;;;22.68;60.93;93963.78;5033011;28;20214;-62
2022/09/16 00:16:16;;;;;;;9.68;2.97;;;;;;;22.65;61.26;93962.41;5032977;28;20751;-64
2022/09/16 00:18:42;;;;;;;5.53;2.30;;;;;;;22.43;61.72;93948.31;5032872;28;20755;-64
2022/09/16 00:21:09;;;;;;;8.60;2.38;;;;;;;22.28;62.09;93935.75;5032942;28;20202;-61
2022/09/16 00:23:35;;;;;;;7.55;2.42;;;;;;;22.52;62.07;93947.78;5032783;28;20206;-63
2022/09/16 00:26:01;;;;;;;6.03;2.42;;;;;;;22.55;61.55;93962.91;5032820;28;20186;-64
2022/09/16 00:28:26;;;;;;;11.18;3.00;;;;;;;22.68;62.12;93941.25;5032598;28;20593;-64
2022/09/16 00:30:52;;;;;;;10.13;2.65;;;;;;;22.28;63.80;93920.22;5032603;28;20190;-65
2022/09/16 00:33:18;;;;;;;6.32;2.40;;;;;;;22.18;62.48;93947.66;5032790;28;20275;-62
2022/09/16 00:35:45;;;;;;;9.27;2.58;;;;;;;22.50;61.09;93967.19;5032558;28;20719;-62
2022/09/16 00:38:11;;;;;;;11.20;2.97;;;;;;;22.26;62.80;93934.41;5032479;28;20289;-62
2022/09/16 00:40:47;;;;;;;10.38;2.75;;;;;;;22.23;63.10;93942.59;5032391;28;20238;-63
2022/09/16 00:43:14;;;;;;;4.90;2.17;;;;;;;22.18;62.45;93937.31;5014720;28;20222;-62
2022/09/16 00:45:41;;;;;;;8.25;3.15;;;;;;;22.10;63.33;93945.38;5032460;28;20655;-59
2022/09/16 00:48:12;;;;;;;4.03;2.63;;;;;;;22.42;63.10;93951.94;5032319;28;20667;-61
2022/09/16 00:50:39;;;;;;;9.13;2.20;;;;;;;22.23;63.69;93937.44;5032179;28;20210;-62
2022/09/16 00:53:08;;;;;;;5.40;2.00;;;;;;;22.32;62.07;93974.97;5032171;28;20321;-62
2022/09/16 00:55:37;;;;;;;9.20;2.58;;;;;;;22.40;61.18;93990.22;5031772;28;20209;-62
2022/09/16 00:58:11;;;;;;;14.35;2.47;;;;;;;22.36;61.78;93973.53;5031959;28;20584;-64
2022/09/16 01:00:37;;;;;;;8.13;2.63;;;;;;;22.35;62.45;93982.31;5014272;28;20210;-65
2022/09/16 01:03:03;;;;;;;15.10;2.90;;;;;;;22.30;62.46;93979.59;5014675;28;20269;-64
2022/09/16 01:05:29;;;;;;;6.55;2.78;;;;;;;22.44;62.85;93970.66;5014461;28;20280;-61
2022/09/16 01:07:54;;;;;;;11.65;3.20;;;;;;;22.20;64.01;93959.38;5031893;28;20215;-62
2022/09/16 01:10:22;;;;;;;6.03;2.47;;;;;;;22.16;62.94;93976.34;5039660;22;20237;-61
2022/09/16 01:12:53;;;;;;;8.73;2.55;;;;;;;22.42;61.73;93977.84;5032210;28;20193;-61
2022/09/16 01:15:23;;;;;;;8.82;2.72;;;;;;;22.43;62.58;93969.84;5014099;28;20740;-61
2022/09/16 01:18:24;;;;;;;8.60;2.20;;;;;;;22.00;63.48;93961.38;5032022;28;20182;-64
2022/09/16 01:21:15;;;;;;;6.82;2.08;;;;;;;21.95;63.02;93976.78;4995046;28;20280;-62
2022/09/16 01:23:46;;;;;;;5.72;2.30;;;;;;;22.11;63.03;93980.59;5031704;28;20272;-62
2022/09/16 01:26:49;;;;;;;4.35;1.80;;;;;;;21.74;64.75;93957.25;5032194;28;20223;-62
2022/09/16 01:29:34;;;;;;;5.82;2.05;;;;;;;22.01;64.74;93964.78;5031812;28;20209;-62
2022/09/16 01:32:20;;;;;;;6.57;2.38;;;;;;;22.02;64.78;93966.38;5031752;28;20220;-61
2022/09/16 01:34:56;;;;;;;7.65;2.25;;;;;;;21.94;65.18;93949.31;5031917;28;20210;-62
2022/09/16 01:37:44;;;;;;;9.82;2.70;;;;;;;22.10;64.50;93960.91;5031688;28;20213;-62
2022/09/16 01:40:23;;;;;;;5.88;2.60;;;;;;;22.16;63.92;93954.84;5031960;28;20265;-62
2022/09/16 01:43:16;;;;;;;10.45;2.28;;;;;;;21.73;66.32;93905.72;5013879;28;20190;-62
2022/09/16 01:45:59;;;;;;;7.63;2.35;;;;;;;21.79;64.90;93940.31;5031898;28;20234;-61
2022/09/16 01:48:36;;;;;;;3.80;1.95;;;;;;;21.59;65.49;93936.09;5013648;28;20194;-62
2022/09/16 01:51:27;;;;;;;6.80;2.55;;;;;;;21.62;65.69;93956.38;5031591;28;20194;-63
2022/09/16 01:54:02;;;;;;;7.47;2.35;;;;;;;21.89;63.94;93976.84;5031439;28;20573;-61
2022/09/16 01:56:52;;;;;;;8.57;2.10;;;;;;;21.74;66.30;93917.66;5031466;28;20214;-61
2022/09/16 01:59:28;;;;;;;8.15;2.15;;;;;;;21.60;66.44;93936.91;5031450;28;20723;-64
2022/09/16 02:02:01;;;;;;;8.45;2.10;;;;;;;21.90;64.67;93981.03;5031354;28;20186;-61
2022/09/16 02:04:31;;;;;;;7.28;2.40;;;;;;;21.86;64.97;93951.38;5031521;28;20280;-61
2022/09/16 02:07:01;;;;;;;6.00;2.53;;;;;;;21.68;66.49;93929.66;5017564;22;20227;-61
2022/09/16 02:09:34;;;;;;;4.60;2.00;;;;;;;22.00;65.97;93942.50;5010332;28;20211;-62
2022/09/16 02:12:05;;;;;;;6.70;2.20;;;;;;;21.91;65.12;93954.13;5011752;28;20190;-60
2022/09/16 02:14:34;;;;;;;10.32;2.58;;;;;;;21.82;64.58;93950.25;5011346;28;20206;-61
2022/09/16 02:17:10;;;;;;;8.65;3.53;;;;;;;21.61;66.07;93923.75;5011534;28;20223;-63
2022/09/16 02:20:00;;;;;;;4.70;2.42;;;;;;;21.69;66.82;93923.47;5011455;28;20209;-65
2022/09/16 02:22:43;;;;;;;8.32;2.83;;;;;;;21.70;66.90;93919.09;5010134;28;20736;-61
2022/09/16 02:25:11;;;;;;;4.50;2.42;;;;;;;21.99;66.01;93935.72;5011470;28;20356;-61
2022/09/16 02:27:40;;;;;;;7.82;2.28;;;;;;;21.87;65.42;93942.63;5009986;28;20213;-62
2022/09/16 02:30:15;;;;;;;4.97;2.00;;;;;;;21.86;64.66;93951.38;5009842;28;20292;-61
2022/09/16 02:32:46;;;;;;;6.95;2.15;;;;;;;21.83;64.79;93964.78;5011189;28;20179;-62
2022/09/16 02:35:15;;;;;;;7.55;2.10;;;;;;;21.95;63.81;93988.94;5011339;28;20217;-63
2022/09/16 02:37:41;;;;;;;8.43;2.50;;;;;;;21.90;64.12;93973.28;5011204;28;20186;-62
2022/09/16 02:40:14;;;;;;;8.98;3.13;;;;;;;21.71;65.44;93969.84;5011229;28;20215;-63
2022/09/16 02:42:39;;;;;;;8.40;2.38;;;;;;;21.97;64.86;93972.19;5011199;28;20191;-62
2022/09/16 02:45:06;;;;;;;9.30;3.95;;;;;;;21.64;66.49;93956.97;5011074;28;20214;-62
2022/09/16 02:48:03;;;;;;;9.07;2.17;;;;;;;21.72;65.32;93981.75;5011007;28;20186;-60
2022/09/16 02:50:58;;;;;;;14.25;3.20;;;;;;;21.82;64.78;93981.28;5011125;28;20211;-62
2022/09/16 02:53:40;;;;;;;10.30;2.63;;;;;;;21.79;65.42;93966.97;5010890;28;20193;-61
2022/09/16 02:56:20;;;;;;;6.47;2.58;;;;;;;21.66;65.19;93972.28;5011025;28;20313;-60
2022/09/16 02:58:46;;;;;;;9.70;2.60;;;;;;;21.85;64.17;93983.47;5010704;28;20221;-61
2022/09/16 03:01:12;;;;;;;13.10;5.15;;;;;;;21.69;65.37;93967.44;5011027;28;20195;-60
2022/09/16 03:03:39;;;;;;;10.27;2.45;;;;;;;21.82;64.78;93987.28;5010942;28;20243;-61
2022/09/16 03:06:21;;;;;;;12.25;4.13;;;;;;;21.96;64.11;94006.06;5011015;28;20199;-61
2022/09/16 03:08:48;;;;;;;7.10;2.35;;;;;;;21.98;63.28;94019.59;5010784;28;20709;-64
2022/09/16 03:11:32;;;;;;;6.45;2.30;;;;;;;21.83;65.09;93996.63;5010837;28;20707;-61
2022/09/16 03:14:13;;;;;;;7.53;2.30;;;;;;;21.83;65.58;93994.03;5010662;28;20217;-60
2022/09/16 03:17:05;;;;;;;17.15;3.15;;;;;;;21.91;65.09;94005.91;5010482;28;20230;-63
2022/09/16 03:19:33;;;;;;;7.45;2.67;;;;;;;21.94;66.02;93992.56;5011521;28;20202;-62
2022/09/16 03:22:25;;;;;;;7.95;2.88;;;;;;;21.94;64.55;94015.84;5014408;28;20253;-62
2022/09/16 03:25:09;;;;;;;5.53;2.30;;;;;;;22.02;64.57;94023.34;5014005;28;20697;-61
2022/09/16 03:27:45;;;;;;;5.97;2.58;;;;;;;22.10;64.90;94015.28;5014058;28;20217;-60
2022/09/16 03:30:11;;;;;;;4.75;2.55;;;;;;;22.03;64.74;94015.34;5014022;28;20673;-62
2022/09/16 03:32:51;;;;;;;11.50;3.20;;;;;;;21.95;65.65;94009.66;5014000;28;20189;-61
2022/09/16 03:35:25;;;;;;;6.32;2.83;;;;;;;22.11;66.65;93975.41;5013616;28;20211;-60
2022/09/16 03:37:57;;;;;;;7.72;2.88;;;;;;;22.16;64.96;93998.88;5013750;28;20667;-61
2022/09/16 03:40:24;;;;;;;9.77;2.55;;;;;;;22.04;66.08;93978.06;5013767;28;20317;-61
2022/09/16 03:42:49;;;;;;;6.97;2.60;;;;;;;22.12;66.88;93971.84;5013805;28;20190;-63
2022/09/16 03:45:18;;;;;;;4.95;2.67;;;;;;;22.04;67.22;93965.13;5013722;28;20281;-61
2022/09/16 03:47:45;;;;;;;8.65;3.78;;;;;;;22.07;66.89;93971.69;5013626;28;20197;-62
2022/09/16 03:50:11;;;;;;;7.93;2.50;;;;;;;21.99;65.95;93971.97;5013586;28;20206;-62
2022/09/16 03:52:38;;;;;;;9.05;2.95;;;;;;;21.79;68.11;93927.38;5013520;28;20186;-64
2022/09/16 03:55:03;;;;;;;7.57;3.20;;;;;;;21.61;70.71;93902.28;5012069;28;20229;-63
2022/09/16 03:57:29;;;;;;;7.28;3.28;;;;;;;21.72;70.84;93909.31;5012177;28;20211;-63
2022/09/16 03:59:55;;;;;;;10.98;3.25;;;;;;;21.88;68.74;93949.38;5012039;28;20218;-63
2022/09/16 04:02:21;;;;;;;16.30;3.95;;;;;;;21.63;69.15;93934.66;5013338;28;20195;-64
2022/09/16 04:04:47;;;;;;;14.95;3.80;;;;;;;21.44;70.67;93907.22;5013381;28;20203;-64
2022/09/16 04:07:12;;;;;;;17.17;3.28;;;;;;;21.24;71.43;93905.81;5013728;28;20202;-60
2022/09/16 04:09:38;;;;;;;10.80;3.45;;;;;;;21.10;72.56;93919.88;5013377;28;20281;-62
2022/09/16 04:12:06;;;;;;;12.93;3.78;;;;;;;21.18;72.48;93948.84;5013497;28;20593;-61
2022/09/16 04:14:32;;;;;;;15.65;3.65;;;;;;;21.19;72.36;93960.75;5013363;28;20202;-63
2022/09/16 04:16:57;;;;;;;15.50;4.20;;;;;;;21.12;72.27;93960.03;5013036;28;20596;-62
2022/09/16 04:19:23;;;;;;;12.00;3.17;;;;;;;21.19;71.96;93965.91;5013289;28;20269;-64
2022/09/16 04:21:49;;;;;;;9.32;3.47;;;;;;;21.23;71.27;93987.75;5013044;28;20257;-63
2022/09/16 04:24:14;;;;;;;11.65;3.92;;;;;;;21.12;71.79;93975.53;5013050;28;20237;-65
2022/09/16 04:26:40;;;;;;;11.98;3.92;;;;;;;21.25;71.38;93997.91;5011965;28;20226;-64
2022/09/16 04:29:06;;;;;;;12.00;4.22;;;;;;;21.23;72.33;93990.34;5012829;28;20225;-62
2022/09/16 04:31:32;;;;;;;13.18;3.53;;;;;;;21.28;71.14;94008.63;5012126;28;20195;-61
2022/09/16 04:33:59;;;;;;;15.18;3.60;;;;;;;21.34;71.38;93994.03;5011524;28;20654;-61
2022/09/16 04:36:25;;;;;;;14.88;4.97;;;;;;;21.30;71.10;94001.44;5011704;28;20227;-63
2022/09/16 04:38:50;;;;;;;12.10;5.28;;;;;;;21.16;71.71;93999.97;5012842;28;20213;-62
2022/09/16 04:41:21;;;;;;;7.93;3.53;;;;;;;21.20;70.95;94001.13;5012904;28;20191;-61
2022/09/16 04:43:51;;;;;;;12.35;3.92;;;;;;;21.15;71.14;93992.41;5012766;28;20198;-62
2022/09/16 04:46:17;;;;;;;12.07;3.70;;;;;;;21.17;71.33;93993.78;5012799;28;20218;-61
2022/09/16 04:48:46;;;;;;;10.63;4.25;;;;;;;21.29;71.30;93994.66;5012608;28;20209;-62
2022/09/16 04:51:12;;;;;;;11.27;4.15;;;;;;;21.37;72.78;93981.47;5012987;28;20195;-63
2022/09/16 04:53:39;;;;;;;7.60;3.25;;;;;;;21.47;72.87;94074.91;5011341;28;20581;-65
2022/09/16 04:56:25;;;;;;;16.20;4.03;;;;;;;21.54;75.97;94005.81;5011614;28;20291;-64
2022/09/16 04:58:52;;;;;;;12.80;3.33;;;;;;;21.55;72.42;94079.81;5013351;28;20707;-62
2022/09/16 05:01:44;;;;;;;12.25;3.28;;;;;;;21.58;70.89;94101.91;5012596;28;20274;-62
2022/09/16 05:04:10;;;;;;;10.02;3.17;;;;;;;21.56;70.84;94103.91;5009874;28;20211;-62
2022/09/16 05:06:38;;;;;;;14.98;3.80;;;;;;;21.49;69.42;94122.06;5012290;28;20210;-62
2022/09/16 05:09:08;;;;;;;6.72;2.90;;;;;;;21.53;68.91;94125.03;5012648;28;20203;-65
2022/09/16 05:11:36;;;;;;;11.52;3.08;;;;;;;21.44;69.26;94113.34;5012648;28;20194;-62
2022/09/16 05:14:03;;;;;;;12.75;4.65;;;;;;;21.48;69.78;94106.75;5012205;28;20202;-62
2022/09/16 05:16:29;;;;;;;18.77;3.85;;;;;;;21.35;70.26;94091.34;5012614;28;20593;-61
2022/09/16 05:18:56;;;;;;;9.48;3.40;;;;;;;21.45;70.33;94089.84;5023488;22;20297;-61
2022/09/16 05:21:24;;;;;;;23.83;4.88;;;;;;;21.37;70.36;94084.94;5030810;28;20577;-62
2022/09/16 05:23:50;;;;;;;17.00;4.68;;;;;;;21.56;69.19;94106.50;5031004;28;20225;-61
2022/09/16 05:26:27;;;;;;;10.77;3.85;;;;;;;21.70;67.89;94119.13;5031186;28;20195;-61
2022/09/16 05:28:53;;;;;;;17.00;4.25;;;;;;;21.81;70.42;94057.34;5014268;28;20205;-61
2022/09/16 05:31:20;;;;;;;9.68;4.03;;;;;;;21.75;68.32;94101.16;5030586;28;20195;-64
2022/09/16 05:33:53;;;;;;;13.75;3.80;;;;;;;21.74;67.33;94125.47;5032100;28;20692;-62
2022/09/16 05:36:19;;;;;;;13.93;3.08;;;;;;;21.85;66.52;94152.50;5031804;28;20221;-62
2022/09/16 05:38:45;;;;;;;10.55;3.50;;;;;;;21.94;65.35;94166.00;5039074;22;21035;-62
2022/09/16 05:41:10;;;;;;;11.98;3.38;;;;;;;22.02;64.49;94189.03;5031793;28;20576;-64
2022/09/16 05:43:37;;;;;;;18.33;2.95;;;;;;;22.02;64.42;94178.66;5031433;28;20287;-61
2022/09/16 05:46:04;;;;;;;11.68;7.35;;;;;;;22.09;63.91;94195.72;5031700;28;20612;-62
2022/09/16 05:48:30;;;;;;;12.63;3.58;;;;;;;22.31;64.58;94175.41;5031600;28;20251;-61
2022/09/16 05:51:00;;;;;;;14.95;3.47;;;;;;;22.30;64.31;94179.81;5031903;28;20205;-61
2022/09/16 05:53:27;;;;;;;21.25;4.80;;;;;;;22.21;64.98;94162.16;5031660;28;20275;-62
2022/09/16 05:56:05;;;;;;;14.48;3.60;;;;;;;22.32;65.44;94153.72;5031464;28;20297;-61
2022/09/16 05:58:32;;;;;;;19.27;4.10;;;;;;;22.37;63.61;94193.50;5031437;28;20185;-61
2022/09/16 06:01:04;;;;;;;9.15;3.15;;;;;;;22.54;63.88;94198.94;5031479;28;20194;-63
2022/09/16 06:03:31;;;;;;;10.98;4.25;;;;;;;22.50;64.21;94179.63;5013658;28;20694;-61
2022/09/16 06:06:00;;;;;;;8.95;3.50;;;;;;;22.63;64.23;94174.34;5031337;28;20179;-61
2022/09/16 06:08:28;;;;;;;9.95;3.80;;;;;;;22.55;62.94;94205.69;5031372;28;20198;-60
2022/09/16 06:10:53;;;;;;;14.77;3.10;;;;;;;22.52;62.17;94219.09;5031277;28;20189;-62
2022/09/16 06:13:19;;;;;;;9.23;3.60;;;;;;;22.60;61.70;94243.97;5013495;28;20193;-60
2022/09/16 06:15:53;;;;;;;12.05;4.20;;;;;;;22.70;60.92;94252.03;5013519;28;20218;-60
2022/09/16 06:18:20;;;;;;;14.32;4.50;;;;;;;22.87;60.08;94273.78;5031200;28;20276;-61
2022/09/16 06:20:46;;;;;;;10.27;3.55;;;;;;;23.01;58.99;94289.03;5031224;28;20198;-61
2022/09/16 06:23:12;;;;;;;9.98;3.10;;;;;;;23.06;58.53;94296.97;5031211;28;20190;-61
2022/09/16 06:25:37;;;;;;;13.88;3.50;;;;;;;23.14;58.19;94301.06;5031094;28;20589;-61
2022/09/16 06:28:03;;;;;;;11.02;3.08;;;;;;;23.16;57.70;94317.22;5031110;28;20182;-63
2022/09/16 06:30:29;;;;;;;20.80;12.45;;;;;;;23.19;55.99;94353.13;5030992;28;20214;-61
2022/09/16 06:32:54;;;;;;;11.30;4.40;;;;;;;23.38;55.89;94346.97;5039099;22;20249;-62
2022/09/16 06:35:20;;;;;;;15.40;3.00;;;;;;;23.22;56.60;94326.72;5013386;28;20602;-63
2022/09/16 06:37:52;;;;;;;15.93;3.17;;;;;;;23.25;56.23;94334.88;5013375;28;20566;-63
2022/09/16 06:40:17;;;;;;;7.97;2.22;;;;;;;23.41;55.93;94349.13;5031073;28;20284;-61
2022/09/16 06:43:03;;;;;;;9.18;2.70;;;;;;;23.38;55.69;94357.34;5031733;28;20182;-64
2022/09/16 06:45:28;;;;;;;6.65;2.30;;;;;;;23.51;56.02;94343.44;5031357;28;20206;-63
2022/09/16 06:47:58;;;;;;;12.98;2.80;;;;;;;23.54;55.55;94367.16;5038240;22;20614;-63
2022/09/16 06:50:23;;;;;;;6.32;2.38;;;;;;;23.67;54.71;94374.00;5030903;28;20213;-62
2022/09/16 06:52:51;;;;;;;10.35;2.72;;;;;;;23.81;54.67;94378.03;5030862;28;20178;-63
2022/09/16 06:55:17;;;;;;;9.50;3.00;;;;;;;23.91;54.65;94376.53;5032882;28;20286;-63
2022/09/16 06:57:42;;;;;;;6.88;2.65;;;;;;;23.78;54.20;94362.88;5034782;28;20273;-62
2022/09/16 07:00:08;;;;;;;15.43;3.13;;;;;;;23.86;55.07;94370.38;5034236;28;20211;-61
2022/09/16 07:02:35;;;;;;;7.38;2.63;;;;;;;24.00;54.24;94387.38;5034609;28;20253;-62
2022/09/16 07:05:01;;;;;;;9.60;4.30;;;;;;;24.05;54.56;94377.19;5016552;28;20201;-62
2022/09/16 07:07:30;;;;;;;10.07;3.03;;;;;;;24.27;54.06;94382.69;5034327;28;20260;-62
2022/09/16 07:09:56;;;;;;;14.00;3.20;;;;;;;24.30;53.79;94393.44;5034391;28;20218;-63
2022/09/16 07:12:21;;;;;;;8.55;2.55;;;;;;;24.42;52.65;94438.44;5034193;28;20755;-62
2022/09/16 07:14:47;;;;;;;10.57;2.88;;;;;;;24.57;52.86;94420.66;5016286;28;20210;-63
2022/09/16 07:17:26;;;;;;;8.15;2.70;;;;;;;24.59;51.83;94436.84;5016667;28;20684;-64
2022/09/16 07:19:52;;;;;;;8.25;2.92;;;;;;;24.67;52.38;94433.94;5015838;28;20308;-64
2022/09/16 07:22:18;;;;;;;7.53;3.55;;;;;;;24.85;52.24;94420.09;5034251;28;20603;-62
2022/09/16 07:24:44;;;;;;;9.98;4.70;;;;;;;24.97;53.18;94403.50;5041664;22;20233;-62
2022/09/16 07:27:10;;;;;;;9.00;3.03;;;;;;;25.10;52.89;94415.50;5033971;28;20186;-62
2022/09/16 07:29:35;;;;;;;6.43;3.08;;;;;;;25.19;51.94;94431.59;5033783;28;20601;-61
2022/09/16 07:32:01;;;;;;;8.43;3.13;;;;;;;25.17;52.34;94416.19;5033563;28;20604;-61
2022/09/16 07:34:27;;;;;;;8.43;2.60;;;;;;;25.37;52.02;94421.09;5033653;28;20202;-61
2022/09/16 07:36:52;;;;;;;9.98;2.47;;;;;;;25.20;50.98;94449.59;5033443;28;20634;-61
2022/09/16 07:39:19;;;;;;;9.65;2.60;;;;;;;24.97;50.78;94452.94;5033510;28;20221;-62
2022/09/16 07:41:47;;;;;;;8.57;3.55;;;;;;;25.20;50.67;94456.59;5033449;28;20178;-62
2022/09/16 07:44:14;;;;;;;5.32;3.08;;;;;;;25.33;51.46;94409.53;5015719;28;20227;-61
2022/09/16 07:46:40;;;;;;;11.52;3.15;;;;;;;25.37;50.33;94432.28;5033453;28;20186;-61
2022/09/16 07:49:09;;;;;;;13.05;3.03;;;;;;;25.79;49.79;94448.63;5033326;28;20664;-61
2022/09/16 07:51:35;;;;;;;6.78;3.28;;;;;;;25.74;50.81;94412.81;5033322;28;20182;-63
2022/09/16 07:54:04;;;;;;;10.00;2.92;;;;;;;25.72;50.79;94401.84;5033279;28;20214;-62
2022/09/16 07:56:33;;;;;;;11.90;3.03;;;;;;;25.77;49.41;94450.66;5033243;28;20285;-62
2022/09/16 07:58:59;;;;;;;8.98;2.47;;;;;;;25.92;49.28;94458.78;5033148;28;20226;-61
2022/09/16 08:01:25;;;;;;;9.93;2.75;;;;;;;26.03;49.09;94458.00;5033124;28;20186;-63
2022/09/16 08:03:51;;;;;;;8.68;3.10;;;;;;;26.18;48.74;94471.34;5033452;28;20210;-60
2022/09/16 08:06:23;;;;;;;6.00;2.83;;;;;;;26.29;50.06;94415.00;5033157;28;20240;-66
2022/09/16 08:08:54;;;;;;;10.73;3.10;;;;;;;26.34;49.35;94441.19;5015872;28;20214;-63
2022/09/16 08:11:20;;;;;;;8.52;2.90;;;;;;;26.14;49.53;94428.53;5033075;28;20194;-62
2022/09/16 08:13:46;;;;;;;12.45;2.90;;;;;;;26.15;50.27;94404.06;5040355;22;20232;-63
2022/09/16 08:16:14;;;;;;;12.70;3.38;;;;;;;26.34;49.42;94434.13;5033018;28;20594;-62
2022/09/16 08:18:40;;;;;;;8.90;3.15;;;;;;;26.55;48.01;94475.22;5033227;28;20209;-61
2022/09/16 08:21:17;;;;;;;9.95;2.72;;;;;;;26.66;48.53;94442.31;5033060;28;20194;-65
2022/09/16 08:23:43;;;;;;;8.30;2.80;;;;;;;26.89;48.02;94464.91;5033532;28;20206;-63
2022/09/16 08:26:09;;;;;;;9.50;3.17;;;;;;;27.37;48.20;94449.56;5032762;28;20190;-63
2022/09/16 08:28:37;;;;;;;14.18;3.20;;;;;;;27.42;47.73;94467.91;5033112;28;20209;-61
2022/09/16 08:31:03;;;;;;;9.77;2.85;;;;;;;27.48;46.38;94500.94;5032812;28;20178;-62
2022/09/16 08:33:28;;;;;;;8.10;2.75;;;;;;;27.35;47.24;94470.69;5032934;28;20201;-62
2022/09/16 08:36:13;;;;;;;9.70;3.13;;;;;;;27.37;46.29;94507.03;5032717;28;20229;-62
2022/09/16 08:38:38;;;;;;;10.57;2.90;;;;;;;27.23;46.96;94477.00;5032791;28;20220;-62
2022/09/16 08:41:12;;;;;;;8.55;2.97;;;;;;;27.56;45.66;94508.38;5032235;28;20194;-63
2022/09/16 08:43:51;;;;;;;6.90;2.95;;;;;;;27.66;45.62;94495.47;5032571;28;20205;-62
2022/09/16 08:46:34;;;;;;;8.93;3.25;;;;;;;27.52;46.38;94467.28;5014949;28;20196;-60
2022/09/16 08:49:28;;;;;;;8.82;2.67;;;;;;;27.48;46.40;94466.97;5033075;28;20210;-62
2022/09/16 08:51:55;;;;;;;11.77;4.00;;;;;;;27.36;46.17;94466.25;5032374;28;20224;-61
2022/09/16 08:54:36;;;;;;;9.93;3.38;;;;;;;27.44;46.04;94450.19;4998345;28;20210;-62
2022/09/16 08:57:04;;;;;;;10.82;3.42;;;;;;;27.69;46.38;94444.56;5032418;28;20212;-63
2022/09/16 08:59:36;;;;;;;12.05;3.75;;;;;;;27.60;47.08;94436.31;5032399;28;20313;-61
2022/09/16 09:02:39;;;;;;;11.38;3.55;;;;;;;27.47;47.45;94413.16;5014932;28;20214;-60
2022/09/16 09:05:33;;;;;;;12.00;3.25;;;;;;;27.46;47.48;94411.56;5032279;28;20714;-63
2022/09/16 09:08:23;;;;;;;8.48;2.70;;;;;;;27.48;47.36;94421.75;5024908;28;20202;-62
2022/09/16 09:10:59;;;;;;;8.68;3.15;;;;;;;27.53;47.09;94430.50;5032401;28;20276;-61
2022/09/16 09:13:55;;;;;;;12.43;3.20;;;;;;;27.44;47.44;94424.06;5015013;28;20190;-61
2022/09/16 09:16:29;;;;;;;14.60;3.97;;;;;;;27.46;47.76;94406.34;5014503;28;20240;-63
2022/09/16 09:19:07;;;;;;;11.27;5.45;;;;;;;27.49;48.04;94390.19;5014160;28;20206;-63
2022/09/16 09:21:54;;;;;;;10.30;2.97;;;;;;;27.36;47.57;94417.44;5014416;28;20193;-60
2022/09/16 09:24:51;;;;;;;10.23;3.70;;;;;;;27.43;47.62;94425.13;5032160;28;20224;-64
2022/09/16 09:27:43;;;;;;;11.48;3.55;;;;;;;27.69;47.99;94415.81;4999475;28;20202;-61
2022/09/16 09:30:18;;;;;;;13.63;4.00;;;;;;;27.54;47.93;94405.94;5031192;28;20306;-61
2022/09/16 09:32:50;;;;;;;13.18;4.13;;;;;;;27.62;48.16;94387.22;5032119;28;20193;-64
2022/09/16 09:35:34;;;;;;;13.75;5.10;;;;;;;27.60;49.13;94351.94;5031868;28;20206;-63
2022/09/16 09:38:18;;;;;;;14.80;4.10;;;;;;;27.37;46.02;94455.56;5014348;28;20256;-63
2022/09/16 09:40:57;;;;;;;12.02;3.58;;;;;;;27.31;47.12;94411.31;5013988;28;20655;-64
2022/09/16 09:43:32;;;;;;;15.70;4.40;;;;;;;27.32;48.13;94384.16;5031957;28;20201;-63
2022/09/16 09:46:05;;;;;;;12.55;3.67;;;;;;;27.43;47.57;94412.81;5031750;28;20231;-61
2022/09/16 09:48:38;;;;;;;12.20;2.88;;;;;;;27.35;48.42;94381.13;5031442;28;20194;-62
2022/09/16 09:51:18;;;;;;;11.85;3.78;;;;;;;27.21;48.17;94403.34;5031751;28;20185;-63
2022/09/16 09:53:52;;;;;;;19.35;4.93;;;;;;;27.06;47.55;94421.34;5032107;28;20206;-63
2022/09/16 09:56:29;;;;;;;9.70;4.15;;;;;;;27.01;47.02;94418.66;5031653;28;20287;-62
2022/09/16 09:59:09;;;;;;;12.23;4.95;;;;;;;26.97;47.59;94400.06;5013648;28;20729;-63
2022/09/16 10:01:35;;;;;;;18.30;4.68;;;;;;;26.83;47.65;94401.41;5031583;28;20189;-62
2022/09/16 10:04:00;;;;;;;10.82;3.60;;;;;;;26.70;48.81;94383.44;5031541;28;20344;-62
2022/09/16 10:06:34;;;;;;;14.23;4.72;;;;;;;26.58;48.74;94380.84;5031360;28;20182;-62
2022/09/16 10:09:00;;;;;;;17.42;4.40;;;;;;;26.57;49.46;94373.28;5013552;28;20218;-63
2022/09/16 10:11:30;;;;;;;14.15;4.97;;;;;;;26.42;50.47;94344.34;5013737;28;20186;-63
2022/09/16 10:14:01;;;;;;;11.90;6.00;;;;;;;26.21;51.52;94324.94;5031032;28;20364;-66
2022/09/16 10:16:38;;;;;;;15.60;4.38;;;;;;;26.01;51.78;94319.31;5013483;28;20241;-62
2022/09/16 10:19:17;;;;;;;7.30;3.50;;;;;;;25.72;53.39;94289.84;5031578;28;20220;-64
2022/09/16 10:21:52;;;;;;;18.25;3.38;;;;;;;25.55;54.78;94278.56;5013351;28;20189;-63
2022/09/16 10:24:28;;;;;;;11.18;3.17;;;;;;;25.33;55.72;94282.78;5030806;28;20687;-62
2022/09/16 10:26:55;;;;;;;11.70;4.20;;;;;;;25.06;56.80;94270.47;5030781;28;20198;-62
2022/09/16 10:29:21;;;;;;;16.05;4.43;;;;;;;24.84;59.79;94228.66;5011964;28;20214;-63
2022/09/16 10:31:47;;;;;;;15.60;5.30;;;;;;;24.32;70.29;94009.41;5030985;28;20258;-63
2022/09/16 10:34:28;;;;;;;12.45;4.35;;;;;;;23.30;77.53;94008.13;5030973;28;20218;-62
2022/09/16 10:37:18;;;;;;;8.23;3.42;;;;;;;22.75;80.26;94027.47;5013134;28;20270;-61
2022/09/16 10:39:51;;;;;;;11.35;4.15;;;;;;;22.22;83.71;94065.34;5030347;28;20372;-62
2022/09/16 10:42:23;;;;;;;12.18;4.35;;;;;;;21.90;92.31;94077.59;5030872;28;20252;-64
2022/09/16 10:44:51;;;;;;;8.52;3.50;;;;;;;21.66;96.16;94086.91;5030837;28;20209;-61
2022/09/16 10:47:35;;;;;;;10.32;3.25;;;;;;;21.52;97.08;94102.75;5030774;28;20190;-61
2022/09/16 10:50:04;;;;;;;7.63;3.10;;;;;;;21.52;99.86;94113.09;5030800;28;20212;-62
2022/09/16 10:52:39;;;;;;;9.05;2.70;;;;;;;21.40;100.00;94138.84;5030734;28;20670;-62
2022/09/16 10:55:21;;;;;;;6.53;2.53;;;;;;;21.55;100.00;94152.25;5030631;28;20292;-59
2022/09/16 10:57:48;;;;;;;6.78;2.40;;;;;;;21.27;100.00;94144.06;5030884;28;20206;-60
2022/09/16 11:00:22;;;;;;;3.20;1.70;;;;;;;21.07;100.00;94122.69;5030746;28;20368;-61
2022/09/16 11:03:17;;;;;;;4.53;2.20;;;;;;;21.10;100.00;94106.00;5031186;28;20194;-62
2022/09/16 11:05:56;;;;;;;3.40;1.60;;;;;;;20.86;100.00;94110.06;5030697;28;20190;-62
2022/09/16 11:08:42;;;;;;;4.18;1.63;;;;;;;20.81;100.00;94115.03;5030837;28;20273;-63
2022/09/16 11:11:31;;;;;;;3.90;1.60;;;;;;;20.75;96.18;94132.16;5030735;28;20195;-62
2022/09/16 11:14:36;;;;;;;7.85;2.17;;;;;;;20.91;96.12;94117.97;5030589;28;20206;-63
2022/09/16 11:17:33;;;;;;;6.03;1.67;;;;;;;21.13;93.87;94105.59;5012597;28;20218;-62
2022/09/16 11:20:28;;;;;;;2.67;1.27;;;;;;;21.34;91.20;94110.41;5030429;28;20683;-64
2022/09/16 11:23:15;;;;;;;1.83;1.15;;;;;;;21.46;85.78;94158.69;5012740;28;20194;-61
2022/09/16 11:25:59;;;;;;;3.20;1.20;;;;;;;21.75;83.50;94168.44;5030811;28;20186;-63
2022/09/16 11:28:45;;;;;;;3.72;1.48;;;;;;;22.22;81.75;94166.34;5030894;28;20628;-62
2022/09/16 11:31:27;;;;;;;4.97;1.33;;;;;;;22.53;77.83;94208.50;5012761;28;20194;-64
2022/09/16 11:34:17;;;;;;;1.65;1.00;;;;;;;22.72;76.08;94213.75;5030306;28;20238;-64
2022/09/16 11:37:16;;;;;;;1.50;1.10;;;;;;;22.96;73.44;94224.06;5030288;28;20213;-64
2022/09/16 11:39:47;;;;;;;2.13;0.93;;;;;;;23.25;70.93;94269.25;4996028;28;20218;-62
2022/09/16 11:42:13;;;;;;;0.70;0.60;;;;;;;23.38;66.08;94309.81;5033484;28;20205;-61
2022/09/16 11:45:08;;;;;;;7.30;0.93;;;;;;;23.82;63.54;94315.50;5033509;28;20206;-63
2022/09/16 11:48:01;;;;;;;1.83;0.93;;;;;;;24.45;61.05;94356.66;5033591;28;20216;-64
2022/09/16 11:50:44;;;;;;;3.35;1.20;;;;;;;25.05;62.05;94302.72;5033567;28;20221;-63
2022/09/16 11:53:39;;;;;;;5.70;1.40;;;;;;;25.63;59.88;94351.13;5033525;28;20186;-60
2022/09/16 11:56:17;;;;;;;5.45;1.90;;;;;;;25.99;67.07;94175.44;5041751;22;20234;-63